createdAt,value
2023-02-01T03:58:42.395Z,15.88
2023-02-01T04:00:58.919Z,16.00
2023-02-01T04:02:12.013Z,15.93
2023-02-01T04:04:06.045Z,15.31
2023-02-01T04:04:29.627Z,15.75
2023-02-01T04:06:14.906Z,14.25
2023-02-01T04:07:14.632Z,14.06
2023-02-01T04:09:11.947Z,15.81
2023-02-01T04:09:41.228Z,12.75
2023-02-01T04:11:06.895Z,13.44
2023-02-01T04:13:18.331Z,14.69
2023-02-01T04:14:38.434Z,13.00
2023-02-01T04:21:35.327Z,14.87
2023-02-01T04:24:32.938Z,14.13
2023-02-01T04:28:45.935Z,13.69
2023-02-01T04:30:06.638Z,15.69
2023-02-01T04:39:29.853Z,17.00
2023-02-01T04:40:35.518Z,16.31
2023-02-01T04:41:42.388Z,18.50
2023-02-01T04:42:48.584Z,12.19
2023-02-01T04:43:54.926Z,17.75
2023-02-01T04:44:56.960Z,14.06
2023-02-01T04:49:14.977Z,16.00
2023-02-01T04:50:20.869Z,16.75
2023-02-01T04:51:26.526Z,16.25
2023-02-01T04:52:43.291Z,15.88
2023-02-01T04:53:41.250Z,21.25
2023-02-01T04:56:01.938Z,17.00
2023-02-01T05:10:57.231Z,14.81
2023-02-01T05:12:57.426Z,18.00
2023-02-01T05:13:19.822Z,16.93
2023-02-01T05:14:01.428Z,17.87
2023-02-01T05:15:34.943Z,12.27
2023-02-01T05:16:23.090Z,15.81
2023-02-01T05:20:42.872Z,16.56
2023-02-01T05:22:05.179Z,17.62
2023-02-01T05:22:51.219Z,18.06
2023-02-01T05:24:11.479Z,17.31
2023-02-01T05:25:35.367Z,16.87
2023-02-01T05:26:11.759Z,16.25
2023-02-01T05:27:22.917Z,16.56
2023-02-01T06:11:57.853Z,16.20
2023-02-01T06:13:05.632Z,14.94
2023-02-01T06:14:11.255Z,17.37
2023-02-01T06:15:18.627Z,16.81
2023-02-01T06:18:57.407Z,16.62
2023-02-01T06:20:38.768Z,16.37
2023-02-01T06:22:55.490Z,15.00
2023-02-01T06:24:03.077Z,16.44
2023-02-01T06:25:05.533Z,17.06
2023-02-01T06:30:26.099Z,18.40
2023-02-01T06:31:18.853Z,17.12
2023-02-01T06:59:24.771Z,16.62
2023-02-01T07:00:29.149Z,16.50
2023-02-01T07:23:33.598Z,18.31
2023-02-01T07:24:37.748Z,18.94
2023-02-01T07:25:41.622Z,14.63
2023-02-01T07:26:45.713Z,15.31
2023-02-01T07:27:56.618Z,14.00
2023-02-01T07:29:13.415Z,18.06
2023-02-01T07:30:09.027Z,5.27
2023-02-01T07:31:17.315Z,17.81
2023-02-01T07:32:21.258Z,19.00
2023-02-01T07:33:28.283Z,17.25
2023-02-01T07:34:32.434Z,17.44
2023-02-01T07:35:38.108Z,18.47
2023-02-01T07:36:43.620Z,18.50
2023-02-01T07:37:49.119Z,18.81
2023-02-01T07:38:56.590Z,19.06
2023-02-01T07:40:11.576Z,17.94
2023-02-01T07:41:32.632Z,19.53
2023-02-01T07:42:36.029Z,19.87
2023-02-01T07:43:43.064Z,18.37
2023-02-01T07:44:48.593Z,19.87
2023-02-01T07:45:56.236Z,21.13
2023-02-01T07:47:11.661Z,19.50
2023-02-01T07:48:14.420Z,13.31
2023-02-01T07:49:19.580Z,19.87
2023-02-01T07:51:45.486Z,19.07
2023-02-01T07:52:35.119Z,19.81
2023-02-01T07:52:42.293Z,18.44
2023-02-01T07:53:47.035Z,19.47
2023-02-01T07:54:52.784Z,16.12
2023-02-01T07:55:58.494Z,17.87
2023-02-01T07:57:06.928Z,18.33
2023-02-01T07:58:12.458Z,26.50
2023-02-01T07:59:16.609Z,17.94
2023-02-01T08:00:21.278Z,15.60
2023-02-01T08:02:00.700Z,16.31
2023-02-01T08:02:47.931Z,17.00
2023-02-01T08:03:44.464Z,16.00
2023-02-01T08:04:53.563Z,15.00
2023-02-01T08:19:04.565Z,14.44
2023-02-01T08:20:09.782Z,14.93
2023-02-01T08:21:24.277Z,15.31
2023-02-01T08:22:24.855Z,15.94
2023-02-01T08:23:30.434Z,18.62
2023-02-01T08:24:37.546Z,15.47
2023-02-01T08:25:45.037Z,16.94
2023-02-01T08:27:39.571Z,14.06
2023-02-01T08:28:01.697Z,13.69
2023-02-01T08:29:25.013Z,15.25
2023-02-01T08:30:32.489Z,14.25
2023-02-01T08:31:44.453Z,13.75
2023-02-01T08:32:50.235Z,12.63
2023-02-01T08:33:58.589Z,15.81
2023-02-01T08:35:03.124Z,13.94
2023-02-01T08:36:13.909Z,15.38
2023-02-01T08:37:18.342Z,15.06
2023-02-01T08:38:27.016Z,15.13
2023-02-01T08:39:32.807Z,13.75
2023-02-01T08:40:50.787Z,13.94
2023-02-01T08:41:47.157Z,14.38
2023-02-01T08:42:54.321Z,15.81
2023-02-01T08:44:04.216Z,15.94
2023-02-01T08:45:08.942Z,14.56
2023-02-01T08:46:14.584Z,13.13
2023-02-01T08:47:20.318Z,13.38
2023-02-01T08:48:25.998Z,14.13
2023-02-01T08:49:33.103Z,14.94
2023-02-01T08:50:39.138Z,14.56
2023-02-01T08:51:42.843Z,12.07
2023-02-01T08:52:47.828Z,15.63
2023-02-01T08:53:53.918Z,17.93
2023-02-01T08:54:59.458Z,15.31
2023-02-01T08:56:06.832Z,15.60
2023-02-01T08:57:13.801Z,14.75
2023-02-01T08:58:17.845Z,18.87
2023-02-01T08:59:23.463Z,16.87
2023-02-01T09:00:29.528Z,18.06
2023-02-01T09:01:33.240Z,17.50
2023-02-01T09:02:38.834Z,16.56
2023-02-01T09:03:50.538Z,17.56
2023-02-01T09:04:48.896Z,16.87
2023-02-01T09:05:54.339Z,15.88
2023-02-01T09:07:06.215Z,15.75
2023-02-01T09:08:11.862Z,17.25
2023-02-01T09:09:17.134Z,17.00
2023-02-01T09:10:34.424Z,13.94
2023-02-01T09:11:31.810Z,14.87
2023-02-01T09:12:36.570Z,16.69
2023-02-01T09:13:48.255Z,18.93
2023-02-01T09:14:50.860Z,18.81
2023-02-01T09:16:29.298Z,13.62
2023-02-01T09:17:05.623Z,18.00
2023-02-01T09:18:14.053Z,15.88
2023-02-01T09:19:26.866Z,15.73
2023-02-01T09:20:46.746Z,18.50
2023-02-01T09:21:41.730Z,17.81
2023-02-01T09:22:51.523Z,14.87
2023-02-01T09:24:06.764Z,16.87
2023-02-01T09:25:21.520Z,18.47
2023-02-01T09:26:19.779Z,16.81
2023-02-01T09:27:26.586Z,16.62
2023-02-01T09:28:32.959Z,18.00
2023-02-01T09:30:06.562Z,14.56
2023-02-01T09:30:51.159Z,18.37
2023-02-01T09:32:05.280Z,18.67
2023-02-01T09:33:12.476Z,17.37
2023-02-01T09:35:44.582Z,18.69
2023-02-01T09:36:39.403Z,18.06
2023-02-01T09:38:15.467Z,18.37
2023-02-01T09:38:53.199Z,16.69
2023-02-01T09:39:59.064Z,16.81
2023-02-01T09:41:13.126Z,16.50
2023-02-01T09:43:24.660Z,17.75
2023-02-01T12:03:00.228Z,13.62
2023-02-01T12:04:35.661Z,9.75
2023-02-01T12:06:00.365Z,10.75
2023-02-01T12:07:07.339Z,9.31
2023-02-01T12:08:26.477Z,11.44
2023-02-01T12:09:45.319Z,12.69
2023-02-01T12:11:22.312Z,11.94
2023-02-01T12:12:44.020Z,10.44
2023-02-01T12:14:24.150Z,12.69
2023-02-01T12:15:39.848Z,11.63
2023-02-01T12:17:09.345Z,11.12
2023-02-01T12:18:44.919Z,11.56
2023-02-01T12:20:10.241Z,11.19
2023-02-01T12:21:31.710Z,12.19
2023-02-01T12:22:53.055Z,13.81
2023-02-01T12:24:20.954Z,13.38
2023-02-01T12:25:44.635Z,12.56
2023-02-01T12:27:24.949Z,14.50
2023-02-01T12:28:43.791Z,13.69
2023-02-01T12:29:59.481Z,10.81
2023-02-01T12:31:09.168Z,11.25
2023-02-01T12:32:18.885Z,10.81
2023-02-01T12:33:40.951Z,12.50
2023-02-01T12:35:06.072Z,12.88
2023-02-01T12:36:19.590Z,12.31
2023-02-01T12:37:38.552Z,11.63
2023-02-01T12:38:51.632Z,8.88
2023-02-01T12:40:24.390Z,12.19
2023-02-01T12:41:58.376Z,12.19
2023-02-01T12:43:20.176Z,8.00
2023-02-01T12:44:35.734Z,13.19
2023-02-01T12:45:42.750Z,12.20
2023-02-01T12:46:52.508Z,10.44
2023-02-01T12:47:59.468Z,13.69
2023-02-01T12:49:21.309Z,12.75
2023-02-01T12:50:28.373Z,6.62
2023-02-01T12:51:38.094Z,6.87
2023-02-01T12:52:47.932Z,13.50
2023-02-01T12:54:00.623Z,14.13
2023-02-01T12:55:13.370Z,13.81
2023-02-01T12:56:23.232Z,13.94
2023-02-01T12:57:30.186Z,11.81
2023-02-01T12:58:43.168Z,13.87
2023-02-01T12:59:55.625Z,13.56
2023-02-01T13:01:14.971Z,14.87
2023-02-01T13:02:24.602Z,13.94
2023-02-01T13:03:41.574Z,13.69
2023-02-01T13:04:59.708Z,11.73
2023-02-01T13:06:18.277Z,13.69
2023-02-01T13:07:28.080Z,11.50
2023-02-01T13:08:51.562Z,12.75
2023-02-01T13:10:04.322Z,12.75
2023-02-01T13:11:22.936Z,12.25
2023-02-01T13:12:35.293Z,11.31
2023-02-01T13:13:45.173Z,11.56
2023-02-01T13:15:00.949Z,13.38
2023-02-01T13:16:27.738Z,12.94
2023-02-01T13:17:34.873Z,11.25
2023-02-01T13:18:41.849Z,12.44
2023-02-01T13:19:54.818Z,11.63
2023-02-01T13:21:07.267Z,11.44
2023-02-01T13:22:30.570Z,9.63
2023-02-01T13:23:40.800Z,12.94
2023-02-01T13:24:53.460Z,19.60
2023-02-01T13:25:57.642Z,13.06
2023-02-01T13:27:02.365Z,13.44
2023-02-01T13:28:09.284Z,14.94
2023-02-01T13:29:14.868Z,12.33
2023-02-01T13:30:21.830Z,13.31
2023-02-01T13:31:53.113Z,15.81
2023-02-01T13:33:52.405Z,16.00
2023-02-01T13:34:39.722Z,13.38
2023-02-01T13:35:58.763Z,8.56
2023-02-01T13:37:31.241Z,12.81
2023-02-01T13:38:57.810Z,14.44
2023-02-01T13:40:22.812Z,13.50
2023-02-01T13:41:32.565Z,15.63
2023-02-01T13:42:48.394Z,11.56
2023-02-01T13:43:55.259Z,12.19
2023-02-01T13:45:04.783Z,13.13
2023-02-01T13:46:11.660Z,9.56
2023-02-01T13:47:24.887Z,12.81
2023-02-01T13:48:34.797Z,13.13
2023-02-01T13:49:41.215Z,13.88
2023-02-01T13:50:46.710Z,15.88
2023-02-01T13:51:56.393Z,13.87
2023-02-01T13:53:03.428Z,13.88
2023-02-01T13:54:07.780Z,13.69
2023-02-01T13:55:29.671Z,13.06
2023-02-01T13:56:42.441Z,10.63
2023-02-01T13:57:47.210Z,13.50
2023-02-01T13:58:51.616Z,12.88
2023-02-01T13:59:57.045Z,11.69
2023-02-01T14:01:23.529Z,13.62
2023-02-01T14:02:39.425Z,12.50
2023-02-01T14:03:48.418Z,11.56
2023-02-01T14:04:52.756Z,14.25
2023-02-01T14:05:59.161Z,13.44
2023-02-01T14:07:03.103Z,12.69
2023-02-01T14:08:10.065Z,13.13
2023-02-01T14:09:33.249Z,14.56
2023-02-01T14:10:59.942Z,12.94
2023-02-01T14:12:26.543Z,10.13
2023-02-01T14:13:41.926Z,14.06
2023-02-01T14:14:46.051Z,15.13
2023-02-01T14:16:08.289Z,14.31
2023-02-01T14:17:15.293Z,15.88
2023-02-01T14:18:40.579Z,16.12
2023-02-01T14:19:44.452Z,15.38
2023-02-01T14:20:49.118Z,13.50
2023-02-01T14:21:55.225Z,13.56
2023-02-01T14:23:05.791Z,16.37
2023-02-01T14:24:12.734Z,16.31
2023-02-01T14:25:20.335Z,17.12
2023-02-01T14:26:43.884Z,10.88
2023-02-01T14:27:47.956Z,14.80
2023-02-01T14:30:15.733Z,16.56
2023-02-01T14:31:22.762Z,19.25
2023-02-01T14:32:29.894Z,16.75
2023-02-01T14:33:34.240Z,17.37
2023-02-01T14:34:41.275Z,17.44
2023-02-01T14:35:48.397Z,18.13
2023-02-01T14:36:55.582Z,19.25
2023-02-01T14:38:02.248Z,17.00
2023-02-01T14:39:08.032Z,19.56
2023-02-01T14:40:17.969Z,19.07
2023-02-01T14:41:36.240Z,18.12
2023-02-01T14:42:49.053Z,16.00
2023-02-01T14:44:05.158Z,20.50
2023-02-01T14:45:30.143Z,20.19
2023-02-01T14:47:10.123Z,17.81
2023-02-01T14:48:17.222Z,18.00
2023-02-01T14:49:21.278Z,19.20
2023-02-01T14:50:34.965Z,20.37
2023-02-01T14:51:39.659Z,19.31
2023-02-01T14:52:46.625Z,21.20
2023-02-01T14:53:52.545Z,19.00
2023-02-01T14:54:59.647Z,20.37
2023-02-01T14:56:09.486Z,14.40
2023-02-01T14:57:20.107Z,17.31
2023-02-01T14:58:49.738Z,20.12
2023-02-01T14:59:57.041Z,20.06
2023-02-01T15:01:16.526Z,20.13
2023-02-01T15:02:23.619Z,18.37
2023-02-01T15:03:33.219Z,15.56
2023-02-01T15:04:40.250Z,20.44
2023-02-01T15:05:44.465Z,18.53
2023-02-01T15:06:53.888Z,19.31
2023-02-01T15:08:04.149Z,27.53
2023-02-01T15:09:11.176Z,17.25
2023-02-01T15:10:15.755Z,19.37
2023-02-01T15:11:19.696Z,13.94
2023-02-01T15:12:29.209Z,17.31
2023-02-01T15:13:33.754Z,17.67
2023-02-01T15:14:41.011Z,17.06
2023-02-01T15:15:45.118Z,18.06
2023-02-01T15:16:50.731Z,16.19
2023-02-01T15:17:57.254Z,15.73
2023-02-01T15:19:12.285Z,18.81
2023-02-01T15:20:19.659Z,17.12
2023-02-01T15:21:30.845Z,17.50
2023-02-01T15:22:33.202Z,19.00
2023-02-01T15:23:38.212Z,18.27
2023-02-01T15:24:42.680Z,11.69
2023-02-01T15:25:48.336Z,17.25
2023-02-01T15:26:54.182Z,18.19
2023-02-01T15:27:59.272Z,18.12
2023-02-01T15:29:03.459Z,16.87
2023-02-01T15:30:19.659Z,16.19
2023-02-01T15:31:35.548Z,18.69
2023-02-01T15:32:41.803Z,18.81
2023-02-01T15:33:48.947Z,20.19
2023-02-01T15:34:53.212Z,21.69
2023-02-01T15:36:15.236Z,18.40
2023-02-01T15:37:23.043Z,16.62
2023-02-01T15:38:38.887Z,15.06
2023-02-01T15:40:01.134Z,17.12
2023-02-01T15:41:08.294Z,15.81
2023-02-01T15:42:14.360Z,16.25
2023-02-01T15:43:18.544Z,15.81
2023-02-01T15:44:28.271Z,17.25
2023-02-01T15:45:34.208Z,12.44
2023-02-01T15:46:46.014Z,17.00
2023-02-01T15:47:53.150Z,18.19
2023-02-01T15:48:57.897Z,16.62
2023-02-01T15:50:03.367Z,17.31
2023-02-01T15:51:09.380Z,16.50
2023-02-01T15:52:24.921Z,17.06
2023-02-01T15:53:29.203Z,15.88
2023-02-01T15:54:45.429Z,16.81
2023-02-01T15:55:55.507Z,18.62
2023-02-01T15:57:04.852Z,18.37
2023-02-01T15:58:17.275Z,16.75
2023-02-01T15:59:24.132Z,17.93
2023-02-01T16:00:31.290Z,15.87
2023-02-01T16:01:41.688Z,17.25
2023-02-01T16:02:54.007Z,17.00
2023-02-01T16:04:20.725Z,19.25
2023-02-01T16:05:30.339Z,15.25
2023-02-01T16:06:34.785Z,20.50
2023-02-01T16:07:39.003Z,16.69
2023-02-01T16:09:04.597Z,15.19
2023-02-01T16:10:20.423Z,19.50
2023-02-01T16:11:30.255Z,17.62
2023-02-01T16:12:47.573Z,16.94
2023-02-01T16:13:51.834Z,18.31
2023-02-01T16:14:55.804Z,16.81
2023-02-01T16:15:59.789Z,17.81
2023-02-01T16:17:03.786Z,16.75
2023-02-01T16:18:08.524Z,17.31
2023-02-01T16:19:12.656Z,14.38
2023-02-01T16:20:16.838Z,15.73
2023-02-01T16:21:21.680Z,15.13
2023-02-01T16:22:26.193Z,16.69
2023-02-01T16:23:31.566Z,19.69
2023-02-01T16:24:35.907Z,18.94
2023-02-01T16:25:40.754Z,17.00
2023-02-01T16:26:44.788Z,16.00
2023-02-01T16:27:49.427Z,16.81
2023-02-01T16:28:53.492Z,19.19
2023-02-01T16:30:00.164Z,12.19
2023-02-01T16:31:04.316Z,18.94
2023-02-01T16:32:17.175Z,14.50
2023-02-01T16:33:22.718Z,16.75
2023-02-01T16:34:27.171Z,17.31
2023-02-01T16:35:34.198Z,18.62
2023-02-01T16:36:38.476Z,19.19
2023-02-01T16:37:42.560Z,19.81
2023-02-01T16:38:47.397Z,16.12
2023-02-01T16:39:51.546Z,19.31
2023-02-01T16:40:55.729Z,18.40
2023-02-01T16:42:01.253Z,19.31
2023-02-01T16:43:11.326Z,21.81
2023-02-01T16:44:17.275Z,19.19
2023-02-01T16:45:21.678Z,19.62
2023-02-01T16:46:28.917Z,19.62
2023-02-01T16:47:33.240Z,19.69
2023-02-01T16:48:39.990Z,18.75
2023-02-01T16:49:44.654Z,20.27
2023-02-01T16:50:57.253Z,19.25
2023-02-01T16:52:01.358Z,20.00
2023-02-01T16:53:05.463Z,17.81
2023-02-01T16:54:10.313Z,19.87
2023-02-01T16:55:17.360Z,19.81
2023-02-01T16:56:33.395Z,20.25
2023-02-01T16:57:37.541Z,19.75
2023-02-01T16:58:41.745Z,19.44
2023-02-01T16:59:47.469Z,19.94
2023-02-01T17:00:52.895Z,20.07
2023-02-01T17:01:57.032Z,17.13
2023-02-01T17:03:01.061Z,19.44
2023-02-01T17:04:05.682Z,20.06
2023-02-01T17:05:11.052Z,19.00
2023-02-01T17:06:18.291Z,20.06
2023-02-01T17:07:22.534Z,16.94
2023-02-01T17:08:34.875Z,20.62
2023-02-01T17:09:40.738Z,20.25
2023-02-01T17:10:44.811Z,20.75
2023-02-01T17:11:48.862Z,18.69
2023-02-01T17:12:52.944Z,17.75
2023-02-01T17:13:59.702Z,20.87
2023-02-01T17:15:03.921Z,10.88
2023-02-01T17:16:25.883Z,19.37
2023-02-01T17:17:38.978Z,20.80
2023-02-01T17:18:38.832Z,20.44
2023-02-01T17:19:43.434Z,20.87
2023-02-01T17:20:47.571Z,21.00
2023-02-01T17:21:56.936Z,20.19
2023-02-01T17:23:01.531Z,20.25
2023-02-01T17:24:06.302Z,20.31
2023-02-01T17:25:18.984Z,20.27
2023-02-01T17:26:23.188Z,22.06
2023-02-01T17:27:27.301Z,21.93
2023-02-01T17:28:31.562Z,21.00
2023-02-01T17:29:35.666Z,20.06
2023-02-01T17:30:40.704Z,18.94
2023-02-01T17:31:51.167Z,17.81
2023-02-01T17:32:55.744Z,20.88
2023-02-01T17:33:59.872Z,22.00
2023-02-01T17:35:08.721Z,21.44
2023-02-01T17:36:17.232Z,21.25
2023-02-01T17:37:24.343Z,21.31
2023-02-01T17:38:28.740Z,22.56
2023-02-01T17:39:32.880Z,21.67
2023-02-01T17:40:37.038Z,19.00
2023-02-01T17:41:41.077Z,22.44
2023-02-01T17:42:45.547Z,20.50
2023-02-01T17:43:52.079Z,22.44
2023-02-01T17:45:02.444Z,22.19
2023-02-01T17:46:15.242Z,22.62
2023-02-01T17:47:19.415Z,21.87
2023-02-01T17:48:24.172Z,21.44
2023-02-01T17:49:28.839Z,22.13
2023-02-01T17:50:35.565Z,20.12
2023-02-01T17:51:39.839Z,20.19
2023-02-01T17:52:45.007Z,14.00
2023-02-01T17:53:49.871Z,27.69
2023-02-01T17:54:54.273Z,21.50
2023-02-01T17:55:58.732Z,22.56
2023-02-01T17:57:02.764Z,21.75
2023-02-01T17:58:06.938Z,21.12
2023-02-01T17:59:10.969Z,22.06
2023-02-01T18:00:17.691Z,21.87
2023-02-01T18:01:25.091Z,21.12
2023-02-01T18:02:29.233Z,20.87
2023-02-01T18:03:33.406Z,22.00
2023-02-01T21:34:23.992Z,14.44
2023-02-01T21:35:28.309Z,14.63
2023-02-01T21:36:34.952Z,13.56
2023-02-01T21:37:41.658Z,14.25
2023-02-01T21:38:51.521Z,13.00
2023-02-01T21:39:56.189Z,12.31
2023-02-01T21:41:04.032Z,13.38
2023-02-01T21:42:09.474Z,12.19
2023-02-01T21:43:13.321Z,11.50
2023-02-01T21:44:18.221Z,10.06
2023-02-01T21:45:25.529Z,13.25
2023-02-01T21:46:29.808Z,11.69
2023-02-01T21:47:36.719Z,10.69
2023-02-01T21:49:05.100Z,12.47
2023-02-01T21:49:48.446Z,12.44
2023-02-01T21:50:54.216Z,11.56
2023-02-01T21:51:59.641Z,12.63
2023-02-01T21:53:06.680Z,11.31
2023-02-01T21:54:15.796Z,13.06
2023-02-01T21:55:20.020Z,10.38
2023-02-01T21:56:24.701Z,11.44
2023-02-01T21:57:29.905Z,13.00
2023-02-01T21:58:36.981Z,13.38
2023-02-01T21:59:44.638Z,10.25
2023-02-01T22:00:49.820Z,12.25
2023-02-01T22:01:54.184Z,12.00
2023-02-01T22:03:01.083Z,13.13
2023-02-01T22:04:06.530Z,12.56
2023-02-01T22:05:12.027Z,12.56
2023-02-01T22:06:28.120Z,12.06
2023-02-01T22:07:33.908Z,12.19
2023-02-01T22:08:38.916Z,13.25
2023-02-01T22:09:44.379Z,11.69
2023-02-01T22:10:52.831Z,10.69
2023-02-01T22:11:56.660Z,10.60
2023-02-01T22:13:02.177Z,12.44
2023-02-01T22:14:06.086Z,12.13
2023-02-01T22:15:14.870Z,9.94
2023-02-01T22:16:19.398Z,11.06
2023-02-01T22:17:24.940Z,11.67
2023-02-01T22:18:31.782Z,10.69
2023-02-01T22:19:37.280Z,13.13
2023-02-01T22:20:42.345Z,11.88
2023-02-01T22:21:50.699Z,13.06
2023-02-01T22:22:55.610Z,11.00
2023-02-01T22:24:02.508Z,11.06
2023-02-01T22:25:08.271Z,11.94
2023-02-01T22:26:14.230Z,11.33
2023-02-01T22:27:18.160Z,11.56
2023-02-01T22:28:33.070Z,11.44
2023-02-01T22:29:28.862Z,11.12
2023-02-01T22:30:37.595Z,12.06
2023-02-01T22:31:49.113Z,10.69
2023-02-01T22:32:54.344Z,12.69
2023-02-01T22:33:58.979Z,10.75
2023-02-01T22:35:04.258Z,11.31
2023-02-01T22:36:08.701Z,11.81
2023-02-01T22:37:15.299Z,10.00
2023-02-01T22:38:21.271Z,11.38
2023-02-01T22:39:25.248Z,10.53
2023-02-01T22:40:29.146Z,11.06
2023-02-01T22:41:33.291Z,10.44
2023-02-01T22:42:37.264Z,13.62
2023-02-01T22:43:41.247Z,8.63
2023-02-01T22:44:45.461Z,9.19
2023-02-01T22:45:49.932Z,10.50
2023-02-01T22:46:55.521Z,11.31
2023-02-01T22:48:03.801Z,11.56
2023-02-01T22:49:07.913Z,8.25
2023-02-01T22:50:12.372Z,13.31
2023-02-01T22:51:28.656Z,10.56
2023-02-01T22:52:32.727Z,11.81
2023-02-01T22:53:39.802Z,9.69
2023-02-01T22:54:45.372Z,9.88
2023-02-01T22:55:50.944Z,11.75
2023-02-01T22:56:56.538Z,6.00
2023-02-01T22:58:01.434Z,11.94
2023-02-01T22:59:07.445Z,12.13
2023-02-01T23:00:16.242Z,9.06
2023-02-01T23:01:23.167Z,9.63
2023-02-01T23:02:28.633Z,12.00
2023-02-01T23:03:32.708Z,10.69
2023-02-01T23:04:36.634Z,10.50
2023-02-01T23:05:42.925Z,10.38
2023-02-01T23:06:50.634Z,11.12
2023-02-01T23:07:54.595Z,11.44
2023-02-01T23:09:06.105Z,11.12
2023-02-01T23:10:11.501Z,11.31
2023-02-01T23:11:22.868Z,12.69
2023-02-01T23:12:29.412Z,12.31
2023-02-01T23:13:40.205Z,9.63
2023-02-01T23:14:43.928Z,11.56
2023-02-01T23:15:47.860Z,10.63
2023-02-01T23:16:53.670Z,10.75
2023-02-01T23:18:00.804Z,8.60
2023-02-01T23:19:08.218Z,11.00
2023-02-01T23:20:16.946Z,11.25
2023-02-01T23:21:25.937Z,10.56
2023-02-01T23:22:31.115Z,11.12
2023-02-01T23:23:36.654Z,11.06
2023-02-01T23:24:41.803Z,12.50
2023-02-01T23:25:51.085Z,10.69
2023-02-01T23:26:56.694Z,11.07
2023-02-01T23:28:03.409Z,11.75
2023-02-01T23:29:11.847Z,11.44
2023-02-01T23:30:16.814Z,8.44
2023-02-01T23:31:26.274Z,10.88
2023-02-01T23:32:33.429Z,12.25
2023-02-01T23:33:40.496Z,13.56
2023-02-01T23:34:46.347Z,11.31
2023-02-01T23:36:02.190Z,10.38
2023-02-01T23:37:08.375Z,12.13
2023-02-01T23:38:14.417Z,9.38
2023-02-01T23:39:18.379Z,10.63
2023-02-01T23:40:25.275Z,11.44
2023-02-01T23:41:29.492Z,8.88
2023-02-01T23:42:35.191Z,12.13
2023-02-01T23:43:40.617Z,10.56
2023-02-01T23:44:47.315Z,11.12
2023-02-01T23:45:52.819Z,11.31
2023-02-01T23:46:57.238Z,12.37
2023-02-01T23:48:01.235Z,13.75
2023-02-01T23:49:13.093Z,12.75
2023-02-01T23:50:18.724Z,11.19
2023-02-01T23:51:24.817Z,11.94
2023-02-01T23:52:30.639Z,13.27
2023-02-01T23:53:37.865Z,11.75
2023-02-01T23:54:43.473Z,11.31
2023-02-01T23:55:50.442Z,12.37
2023-02-01T23:56:55.980Z,13.87
2023-02-01T23:58:06.522Z,13.13
2023-02-01T23:59:13.601Z,11.75
